createdAt,value
2023-11-07T00:02:25.724Z,10.33
2023-11-07T00:07:27.911Z,10.33
2023-11-07T00:12:28.670Z,10.20
2023-11-07T00:17:29.674Z,10.12
2023-11-07T00:22:31.907Z,10.11
2023-11-07T00:27:32.787Z,10.05
2023-11-07T00:32:33.668Z,10.03
2023-11-07T00:37:36.153Z,9.80
2023-11-07T00:42:37.089Z,9.70
2023-11-07T00:47:38.247Z,9.53
2023-11-07T00:52:40.674Z,9.50
2023-11-07T00:57:41.555Z,9.42
2023-11-07T01:02:43.070Z,9.53
2023-11-07T01:07:46.003Z,9.58
2023-11-07T01:12:47.139Z,9.59
2023-11-07T01:17:48.380Z,9.55
2023-11-07T01:22:51.235Z,9.63
2023-11-07T01:27:53.566Z,9.70
2023-11-07T01:32:54.479Z,9.61
2023-11-07T01:38:00.132Z,9.65
2023-11-07T01:43:00.980Z,9.61
2023-11-07T01:48:01.994Z,9.58
2023-11-07T01:53:06.062Z,9.69
2023-11-07T01:58:08.708Z,9.74
2023-11-07T02:03:09.976Z,10.08
2023-11-07T02:08:12.386Z,10.20
2023-11-07T02:13:13.190Z,10.36
2023-11-07T02:18:14.369Z,10.41
2023-11-07T02:23:29.862Z,10.37
2023-11-07T02:28:31.422Z,10.19
2023-11-07T02:33:34.061Z,10.15
2023-11-07T02:38:36.270Z,10.11
2023-11-07T02:43:37.175Z,10.18
2023-11-07T02:48:38.128Z,10.27
2023-11-07T02:53:40.583Z,10.18
2023-11-07T02:58:41.498Z,10.38
2023-11-07T03:03:44.115Z,10.40
2023-11-07T03:08:46.544Z,10.39
2023-11-07T03:13:47.398Z,10.40
2023-11-07T03:18:48.390Z,10.37
2023-11-07T03:23:50.637Z,10.43
2023-11-07T03:28:51.447Z,10.48
2023-11-07T03:33:52.326Z,10.53
2023-11-07T03:38:54.808Z,10.46
2023-11-07T03:43:55.972Z,10.60
2023-11-07T03:48:57.511Z,10.59
2023-11-07T03:53:59.738Z,10.58
2023-11-07T03:59:02.691Z,10.53
2023-11-07T04:04:04.085Z,10.65
2023-11-07T04:09:06.797Z,10.63
2023-11-07T04:14:07.589Z,10.62
2023-11-07T04:19:09.258Z,10.62
2023-11-07T04:24:11.620Z,10.63
2023-11-07T04:29:12.940Z,10.67
2023-11-07T04:34:13.787Z,10.67
2023-11-07T04:39:15.917Z,10.76
2023-11-07T04:44:17.219Z,10.73
2023-11-07T04:49:18.142Z,10.67
2023-11-07T04:54:20.392Z,10.71
2023-11-07T04:59:21.233Z,10.65
2023-11-07T05:04:22.126Z,10.69
2023-11-07T05:09:26.320Z,10.70
2023-11-07T05:14:28.908Z,10.66
2023-11-07T05:19:29.805Z,11.15
2023-11-07T05:24:31.963Z,10.82
2023-11-07T05:29:32.745Z,10.65
2023-11-07T05:34:33.606Z,10.60
2023-11-07T05:39:36.077Z,10.69
2023-11-07T05:44:37.072Z,10.66
2023-11-07T05:49:37.881Z,10.66
2023-11-07T05:54:40.318Z,10.55
2023-11-07T05:59:41.158Z,10.56
2023-11-07T06:04:44.938Z,10.41
2023-11-07T06:09:47.040Z,10.37
2023-11-07T06:14:47.879Z,10.38
2023-11-07T06:19:49.077Z,10.26
2023-11-07T06:24:51.223Z,10.30
2023-11-07T06:29:52.026Z,10.21
2023-11-07T06:34:53.065Z,10.18
2023-11-07T06:39:56.344Z,10.25
2023-11-07T06:44:57.152Z,10.21
2023-11-07T06:49:58.040Z,10.28
2023-11-07T06:55:00.281Z,10.38
2023-11-07T07:00:01.191Z,10.21
2023-11-07T07:05:02.053Z,10.15
2023-11-07T07:10:04.442Z,10.15
2023-11-07T07:15:07.349Z,10.28
2023-11-07T07:20:14.007Z,10.41
2023-11-07T07:25:21.350Z,10.49
2023-11-07T07:30:23.555Z,10.59
2023-11-07T07:40:27.790Z,10.69
2023-11-07T07:45:30.836Z,10.75
2023-11-07T07:50:32.695Z,10.93
2023-11-07T07:55:37.117Z,11.04
2023-11-07T08:00:39.543Z,11.08
2023-11-07T08:05:42.115Z,11.13
2023-11-07T08:10:49.408Z,11.16
2023-11-07T08:15:51.419Z,11.23
2023-11-07T08:20:52.570Z,11.20
2023-11-07T08:25:54.721Z,11.31
2023-11-07T08:30:55.522Z,11.29
2023-11-07T08:35:56.869Z,11.40
2023-11-07T08:41:00.676Z,11.62
2023-11-07T08:46:01.502Z,11.90
2023-11-07T08:51:02.348Z,12.05
2023-11-07T08:56:04.682Z,12.05
2023-11-07T09:01:06.098Z,12.20
2023-11-07T09:06:07.494Z,12.11
2023-11-07T09:11:09.707Z,12.02
2023-11-07T09:16:11.086Z,12.05
2023-11-07T09:21:11.915Z,11.97
2023-11-07T09:26:14.053Z,11.99
2023-11-07T09:31:14.877Z,12.10
2023-11-07T09:36:16.436Z,12.39
2023-11-07T09:41:18.669Z,12.44
2023-11-07T09:46:23.222Z,12.52
2023-11-07T09:51:28.628Z,12.46
2023-11-07T09:56:32.912Z,12.43
2023-11-07T10:01:34.261Z,12.46
2023-11-07T10:06:35.404Z,12.59
2023-11-07T10:11:47.334Z,12.97
2023-11-07T10:16:52.654Z,12.95
2023-11-07T10:21:54.254Z,12.91
2023-11-07T10:27:00.402Z,13.11
2023-11-07T10:32:04.251Z,13.28
2023-11-07T10:37:06.245Z,13.47
2023-11-07T10:42:19.800Z,13.59
2023-11-07T10:47:24.164Z,13.73
2023-11-07T10:52:25.074Z,13.84
2023-11-07T10:57:36.597Z,13.43
2023-11-07T11:02:41.433Z,13.70
2023-11-07T11:07:51.111Z,14.15
2023-11-07T11:12:54.203Z,13.48
2023-11-07T11:17:59.604Z,13.43
2023-11-07T11:23:11.934Z,13.46
2023-11-07T11:28:14.083Z,13.49
2023-11-07T11:33:15.524Z,13.45
2023-11-07T11:38:21.279Z,13.40
2023-11-07T11:43:24.579Z,13.65
2023-11-07T11:48:58.767Z,13.65
2023-11-07T11:54:00.340Z,13.65
2023-11-07T11:59:08.062Z,14.05
2023-11-07T12:04:09.477Z,14.26
2023-11-07T12:09:31.274Z,14.21
2023-11-07T12:14:35.796Z,13.98
2023-11-07T12:19:36.633Z,14.02
2023-11-07T12:24:37.640Z,14.49
2023-11-07T12:29:39.766Z,14.17
2023-11-07T12:34:41.197Z,13.61
2023-11-07T12:39:43.675Z,13.62
2023-11-07T12:44:46.835Z,13.33
2023-11-07T12:49:47.844Z,13.28
2023-11-07T12:54:48.817Z,12.98
2023-11-07T13:00:00.675Z,13.10
2023-11-07T13:05:01.966Z,13.14
2023-11-07T13:10:13.717Z,13.25
2023-11-07T13:15:17.433Z,13.38
2023-11-07T13:20:18.270Z,13.17
2023-11-07T13:25:19.398Z,13.23
2023-11-07T13:30:22.913Z,13.22
2023-11-07T13:35:23.795Z,12.98
2023-11-07T13:40:24.583Z,13.05
2023-11-07T13:45:29.514Z,12.84
2023-11-07T13:50:32.421Z,12.84
2023-11-07T13:55:34.249Z,12.79
2023-11-07T14:00:36.387Z,12.67
2023-11-07T14:05:37.209Z,12.92
2023-11-07T14:10:38.790Z,13.00
2023-11-07T14:15:42.644Z,12.83
2023-11-07T14:20:43.666Z,12.76
2023-11-07T14:25:44.895Z,12.73
2023-11-07T14:30:47.455Z,12.60
2023-11-07T14:35:48.738Z,12.61
2023-11-07T14:40:51.830Z,12.26
2023-11-07T14:45:54.090Z,12.35
2023-11-07T14:50:55.311Z,12.10
2023-11-07T14:55:57.197Z,12.19
2023-11-07T15:00:59.758Z,12.21
2023-11-07T15:06:03.672Z,12.14
2023-11-07T15:11:05.190Z,12.18
2023-11-07T15:16:07.763Z,12.14
2023-11-07T15:21:08.576Z,12.04
2023-11-07T15:26:09.450Z,12.01
2023-11-07T15:31:15.022Z,11.85
2023-11-07T15:36:15.835Z,11.92
2023-11-07T15:41:16.633Z,11.93
2023-11-07T15:46:18.746Z,11.73
2023-11-07T15:51:19.758Z,11.70
2023-11-07T15:56:20.772Z,11.60
2023-11-07T16:01:27.434Z,11.65
2023-11-07T16:06:28.646Z,11.57
2023-11-07T16:11:29.438Z,11.52
2023-11-07T16:16:32.277Z,11.59
2023-11-07T16:21:33.111Z,11.55
2023-11-07T16:26:37.737Z,11.42
2023-11-07T16:31:39.859Z,11.31
2023-11-07T16:36:40.676Z,11.21
2023-11-07T16:41:41.447Z,11.16
2023-11-07T16:46:43.673Z,11.02
2023-11-07T16:51:44.559Z,10.95
2023-11-07T16:56:45.365Z,10.84
2023-11-07T17:01:47.498Z,10.89
2023-11-07T17:06:48.351Z,10.93
2023-11-07T17:11:49.157Z,10.87
2023-11-07T17:16:52.350Z,10.93
2023-11-07T17:21:54.182Z,10.91
2023-11-07T17:26:56.152Z,10.91
2023-11-07T17:31:59.172Z,10.92
2023-11-07T17:37:00.318Z,10.89
2023-11-07T17:42:01.199Z,10.89
2023-11-07T17:47:03.468Z,10.91
2023-11-07T17:52:04.305Z,10.87
2023-11-07T17:57:05.264Z,10.80
2023-11-07T18:02:08.131Z,10.84
2023-11-07T18:07:09.515Z,10.86
2023-11-07T18:12:11.212Z,10.88
2023-11-07T18:17:13.545Z,10.96
2023-11-07T18:22:14.379Z,10.90
2023-11-07T18:27:16.082Z,10.88
2023-11-07T18:32:21.480Z,10.94
2023-11-07T18:37:22.453Z,10.91
2023-11-07T18:42:27.653Z,10.89
2023-11-07T18:47:31.630Z,10.78
2023-11-07T18:52:34.010Z,10.72
2023-11-07T18:57:34.971Z,10.71
2023-11-07T19:02:37.294Z,10.65
2023-11-07T19:07:39.904Z,10.58
2023-11-07T19:12:41.233Z,10.48
2023-11-07T19:17:45.341Z,10.48
2023-11-07T19:22:46.552Z,10.57
2023-11-07T19:27:47.523Z,10.66
2023-11-07T19:32:52.566Z,10.56
2023-11-07T19:37:55.384Z,10.66
2023-11-07T19:42:57.096Z,10.57
2023-11-07T19:47:59.243Z,10.75
2023-11-07T19:53:09.515Z,10.50
2023-11-07T19:58:13.617Z,10.45
2023-11-07T20:03:16.970Z,10.48
2023-11-07T20:08:18.033Z,10.38
2023-11-07T20:13:19.297Z,10.39
2023-11-07T20:18:21.699Z,10.39
2023-11-07T20:23:25.824Z,10.46
2023-11-07T20:28:26.857Z,10.43
2023-11-07T20:33:37.565Z,10.21
2023-11-07T20:38:46.456Z,10.35
2023-11-07T20:43:47.650Z,10.29
2023-11-07T20:48:50.729Z,10.42
2023-11-07T20:53:51.632Z,10.48
2023-11-07T20:58:52.393Z,10.36
2023-11-07T21:03:56.291Z,10.38
2023-11-07T21:08:57.818Z,10.40
2023-11-07T21:13:58.723Z,10.27
2023-11-07T21:19:01.033Z,10.22
2023-11-07T21:24:01.986Z,10.29
2023-11-07T21:29:03.521Z,10.29
2023-11-07T21:34:07.762Z,10.27
2023-11-07T21:39:12.715Z,10.03
2023-11-07T21:44:20.545Z,10.01
2023-11-07T21:49:23.832Z,10.01
2023-11-07T21:54:24.800Z,9.86
2023-11-07T21:59:25.608Z,9.89
2023-11-07T22:04:27.839Z,9.86
2023-11-07T22:09:28.838Z,9.82
2023-11-07T22:14:29.702Z,9.65
2023-11-07T22:19:32.158Z,9.58
2023-11-07T22:24:33.038Z,9.47
2023-11-07T22:29:33.931Z,9.35
2023-11-07T22:34:36.109Z,9.35
2023-11-07T22:39:37.169Z,9.37
2023-11-07T22:44:38.349Z,9.51
2023-11-07T22:49:40.569Z,9.47
2023-11-07T22:54:41.423Z,9.27
2023-11-07T22:59:42.210Z,9.24
2023-11-07T23:04:45.926Z,9.19
2023-11-07T23:09:50.308Z,9.10
2023-11-07T23:14:51.751Z,9.14
2023-11-07T23:19:53.915Z,9.16
2023-11-07T23:24:54.744Z,9.21
2023-11-07T23:29:57.325Z,9.22
2023-11-07T23:34:59.598Z,9.21
2023-11-07T23:40:00.457Z,9.07
2023-11-07T23:45:01.201Z,9.14
2023-11-07T23:50:03.568Z,9.26
2023-11-07T23:55:05.264Z,9.25
